Time;durP1;ratioP1;P1;durP2;ratioP2;P2;SDS_P1;SDS_P2;PMS_P1;PMS_P2;Temp;Humidity;BMP_temperature;BMP_pressure;BME280_temperature;BME280_humidity;BME280_pressure;Samples;Min_cycle;Max_cycle;Signal;HPM_P1;HPM_P2
2021/11/01 00:00:38;;;;;;;23.15;0.40;;;10.00;99.90;;;;;;5073230;28;20029;-78
2021/11/01 00:03:04;;;;;;;10.07;1.05;;;10.00;99.90;;;;;;5073936;28;20070;-78
2021/11/01 00:05:30;;;;;;;21.40;1.25;;;10.00;99.90;;;;;;5055732;28;20020;-77
2021/11/01 00:07:56;;;;;;;9.15;0.15;;;10.00;99.90;;;;;;5073932;28;20017;-77
2021/11/01 00:10:22;;;;;;;10.18;0.55;;;10.00;99.90;;;;;;5055625;28;20013;-77
2021/11/01 00:12:48;;;;;;;10.20;0.30;;;10.00;99.90;;;;;;5055460;28;20026;-78
2021/11/01 00:15:14;;;;;;;6.18;0.68;;;10.00;99.90;;;;;;5055654;28;20115;-77
2021/11/01 00:17:40;;;;;;;5.13;0.00;;;9.90;99.90;;;;;;5055592;28;20052;-77
2021/11/01 00:20:07;;;;;;;6.15;0.20;;;9.90;99.90;;;;;;5073405;28;20024;-77
2021/11/01 00:22:34;;;;;;;4.18;0.30;;;9.90;99.90;;;;;;5072672;28;20057;-77
2021/11/01 00:25:00;;;;;;;3.55;0.60;;;9.90;99.90;;;;;;5073013;28;20028;-77
2021/11/01 00:27:26;;;;;;;9.73;0.20;;;9.80;99.90;;;;;;5073415;28;20025;-77
2021/11/01 00:29:52;;;;;;;6.97;0.40;;;9.90;99.90;;;;;;5073354;28;20021;-78
2021/11/01 00:32:18;;;;;;;5.53;0.20;;;9.90;99.90;;;;;;5073029;28;20036;-77
2021/11/01 00:34:43;;;;;;;9.18;0.95;;;9.90;99.90;;;;;;5073330;28;20121;-77
2021/11/01 00:37:10;;;;;;;12.98;0.82;;;9.90;99.90;;;;;;5054716;28;20025;-77
2021/11/01 00:39:36;;;;;;;8.43;0.10;;;9.90;99.90;;;;;;5073231;28;20052;-77
2021/11/01 00:42:03;;;;;;;11.70;0.57;;;9.80;99.90;;;;;;5055248;28;20039;-77
2021/11/01 00:44:30;;;;;;;8.65;1.00;;;9.80;99.90;;;;;;5054984;28;20023;-78
2021/11/01 00:46:58;;;;;;;4.82;0.22;;;9.80;99.90;;;;;;5055515;28;20021;-78
2021/11/01 00:49:24;;;;;;;7.80;0.43;;;9.80;99.90;;;;;;5073446;28;20393;-78
2021/11/01 00:51:51;;;;;;;4.35;0.38;;;9.80;99.90;;;;;;5073598;28;20081;-79
2021/11/01 00:54:17;;;;;;;10.93;0.77;;;9.80;99.90;;;;;;5072845;28;20393;-78
2021/11/01 00:56:42;;;;;;;4.35;0.32;;;9.70;99.90;;;;;;5072601;28;20024;-78
2021/11/01 00:59:08;;;;;;;11.60;1.00;;;9.70;99.90;;;;;;5072960;28;20029;-78
2021/11/01 01:01:34;;;;;;;5.18;0.10;;;9.70;99.90;;;;;;5055050;28;20043;-78
2021/11/01 01:04:01;;;;;;;6.57;0.00;;;9.70;99.90;;;;;;5073117;28;20028;-79
2021/11/01 01:06:27;;;;;;;5.68;0.20;;;9.70;99.90;;;;;;5054794;28;20139;-79
2021/11/01 01:08:53;;;;;;;6.72;0.30;;;9.60;99.90;;;;;;5072964;28;20024;-78
2021/11/01 01:11:19;;;;;;;8.23;0.17;;;9.60;99.90;;;;;;5055021;28;20048;-78
2021/11/01 01:13:45;;;;;;;5.90;0.60;;;9.70;99.90;;;;;;5076379;28;20024;-76
2021/11/01 01:18:47;;;;;;;3.05;0.30;;;9.70;99.90;;;;;;5076778;28;20363;-75
2021/11/01 01:23:57;;;;;;;7.00;0.30;;;9.60;99.90;;;;;;5076203;28;20036;-74
2021/11/01 01:26:23;;;;;;;8.02;0.70;;;9.70;99.90;;;;;;5057835;28;20025;-74
2021/11/01 01:28:49;;;;;;;7.65;0.10;;;9.60;99.90;;;;;;5058556;28;20048;-74
2021/11/01 01:31:15;;;;;;;11.85;0.95;;;9.50;99.90;;;;;;5058418;28;20567;-74
2021/11/01 01:33:40;;;;;;;5.75;0.20;;;9.60;99.90;;;;;;5076179;28;20481;-74
2021/11/01 01:36:06;;;;;;;3.28;0.10;;;9.50;99.90;;;;;;5076224;28;20021;-75
2021/11/01 01:38:33;;;;;;;7.13;0.13;;;9.50;99.90;;;;;;5076159;28;20025;-75
2021/11/01 01:41:09;;;;;;;11.07;0.30;;;9.50;99.90;;;;;;5058294;28;20017;-75
2021/11/01 01:43:34;;;;;;;6.03;0.17;;;9.50;99.90;;;;;;5075757;28;20040;-75
2021/11/01 01:46:00;;;;;;;8.95;0.22;;;9.50;99.90;;;;;;5075904;28;20070;-74
2021/11/01 01:48:25;;;;;;;7.05;0.08;;;9.50;99.90;;;;;;5076188;28;20028;-74
2021/11/01 01:50:51;;;;;;;9.15;0.93;;;9.50;99.90;;;;;;5058153;28;20016;-74
2021/11/01 01:53:19;;;;;;;4.63;0.13;;;9.50;99.90;;;;;;5076208;28;20025;-74
2021/11/01 01:55:45;;;;;;;6.43;0.17;;;9.50;99.90;;;;;;5076452;28;20032;-74
2021/11/01 01:58:11;;;;;;;5.57;0.10;;;9.40;99.90;;;;;;5076366;28;20755;-74
2021/11/01 02:00:51;;;;;;;11.23;0.57;;;9.50;99.90;;;;;;5058028;28;20023;-75
2021/11/01 02:03:17;;;;;;;11.43;0.45;;;9.40;99.90;;;;;;5058113;28;20024;-75
2021/11/01 02:05:54;;;;;;;14.98;0.75;;;9.40;99.90;;;;;;5075784;28;20381;-75
2021/11/01 02:08:20;;;;;;;4.75;1.02;;;9.40;99.90;;;;;;5076321;28;20401;-74
2021/11/01 02:10:58;;;;;;;6.85;0.10;;;9.40;99.90;;;;;;5074591;28;20473;-74
2021/11/01 02:13:27;;;;;;;4.37;0.27;;;9.50;99.90;;;;;;5057886;28;20518;-75
2021/11/01 02:15:57;;;;;;;5.18;0.45;;;9.40;99.90;;;;;;5075676;28;20020;-77
2021/11/01 02:18:25;;;;;;;6.45;0.03;;;9.40;99.90;;;;;;5075931;28;20029;-76
2021/11/01 02:20:53;;;;;;;7.40;0.10;;;9.40;99.90;;;;;;5074528;28;20445;-76
2021/11/01 02:23:24;;;;;;;3.35;0.00;;;9.40;99.90;;;;;;5075662;28;20473;-77
2021/11/01 02:25:55;;;;;;;5.38;0.10;;;9.40;99.90;;;;;;5075453;28;20103;-76
2021/11/01 02:28:25;;;;;;;7.10;0.93;;;9.30;99.90;;;;;;5058037;28;20046;-78
2021/11/01 02:30:52;;;;;;;12.20;0.25;;;9.30;99.90;;;;;;5076596;28;20074;-78
2021/11/01 02:33:20;;;;;;;4.60;0.55;;;9.30;99.90;;;;;;5075389;28;20127;-77
2021/11/01 02:35:46;;;;;;;7.05;1.17;;;9.30;99.90;;;;;;5074089;28;20025;-77
2021/11/01 02:38:14;;;;;;;5.35;0.28;;;9.30;99.90;;;;;;5075304;28;20504;-76
2021/11/01 02:40:40;;;;;;;7.63;0.08;;;9.30;99.90;;;;;;5075245;28;20066;-77
2021/11/01 02:43:06;;;;;;;4.82;0.00;;;9.30;99.90;;;;;;5075269;28;20032;-77
2021/11/01 02:45:34;;;;;;;7.70;0.20;;;9.30;99.90;;;;;;5075309;28;20024;-77
2021/11/01 02:48:00;;;;;;;4.13;0.45;;;9.30;99.90;;;;;;5057177;28;20025;-76
2021/11/01 02:50:26;;;;;;;4.32;0.45;;;9.30;99.90;;;;;;5075326;28;20050;-77
2021/11/01 02:52:51;;;;;;;5.72;0.82;;;9.30;99.90;;;;;;5057296;28;20389;-77
2021/11/01 02:55:19;;;;;;;6.30;0.00;;;9.30;99.90;;;;;;5074972;28;20422;-78
2021/11/01 02:57:45;;;;;;;5.78;0.20;;;9.30;99.90;;;;;;5057016;28;20097;-77
2021/11/01 03:00:12;;;;;;;6.88;0.20;;;9.30;99.90;;;;;;5074981;28;20071;-77
2021/11/01 03:02:38;;;;;;;12.77;0.68;;;9.40;99.90;;;;;;5074732;28;20060;-78
2021/11/01 03:05:07;;;;;;;2.67;0.15;;;9.40;99.90;;;;;;5074745;28;20025;-78
2021/11/01 03:07:35;;;;;;;4.20;0.38;;;9.40;99.90;;;;;;5074953;28;20434;-76
2021/11/01 03:10:03;;;;;;;6.25;0.40;;;9.40;99.90;;;;;;5074777;28;20019;-77
2021/11/01 03:12:29;;;;;;;9.38;1.23;;;9.50;99.90;;;;;;5056969;28;20075;-77
2021/11/01 03:14:57;;;;;;;4.78;0.32;;;9.50;99.90;;;;;;5056678;28;20028;-77
2021/11/01 03:17:25;;;;;;;5.72;0.13;;;9.50;99.90;;;;;;5073169;28;20063;-78
2021/11/01 03:20:02;;;;;;;7.43;0.50;;;9.40;99.90;;;;;;5056500;28;20400;-77
2021/11/01 03:22:36;;;;;;;9.23;0.35;;;9.40;99.90;;;;;;5074598;28;20082;-76
2021/11/01 03:25:05;;;;;;;17.17;0.22;;;9.30;99.90;;;;;;5074415;28;20045;-78
2021/11/01 03:27:33;;;;;;;0.95;0.00;;;9.30;99.90;;;;;;5074400;28;20032;-77
2021/11/01 03:30:00;;;;;;;8.57;0.20;;;9.30;99.90;;;;;;5074230;28;20492;-78
2021/11/01 03:32:26;;;;;;;7.38;0.65;;;9.30;99.90;;;;;;5074102;28;20516;-77
2021/11/01 03:34:52;;;;;;;8.27;0.25;;;9.30;99.90;;;;;;5075011;28;20126;-78
2021/11/01 03:37:19;;;;;;;7.80;0.20;;;9.30;99.90;;;;;;5055562;28;20049;-78
2021/11/01 03:39:47;;;;;;;6.70;0.17;;;9.20;99.90;;;;;;5056590;28;20497;-79
2021/11/01 03:42:14;;;;;;;3.20;0.28;;;9.20;99.90;;;;;;5074458;28;20103;-79
2021/11/01 03:44:44;;;;;;;10.25;1.15;;;9.20;99.90;;;;;;5056304;28;20017;-78
2021/11/01 03:47:11;;;;;;;9.15;0.68;;;9.30;99.90;;;;;;5074016;28;20147;-78
2021/11/01 03:49:41;;;;;;;13.38;0.65;;;9.30;99.90;;;;;;5074055;28;20031;-78
2021/11/01 03:52:11;;;;;;;12.63;0.30;;;9.30;99.90;;;;;;5074329;28;20358;-78
2021/11/01 03:54:38;;;;;;;4.20;1.10;;;9.30;99.90;;;;;;5075518;28;20129;-79
2021/11/01 03:57:08;;;;;;;5.38;0.38;;;9.30;99.90;;;;;;5074430;28;20020;-78
2021/11/01 03:59:34;;;;;;;6.53;0.85;;;9.30;99.90;;;;;;5072808;28;20048;-78
2021/11/01 04:02:01;;;;;;;3.33;1.05;;;9.20;99.90;;;;;;5072674;28;20017;-78
2021/11/01 04:04:27;;;;;;;7.68;0.43;;;9.30;99.90;;;;;;5073691;28;20395;-78
2021/11/01 04:06:53;;;;;;;7.50;0.55;;;9.30;99.90;;;;;;5073812;28;20021;-78
2021/11/01 04:09:18;;;;;;;11.35;0.60;;;9.30;99.90;;;;;;5074361;28;20350;-78
2021/11/01 04:11:49;;;;;;;6.55;0.40;;;9.30;99.90;;;;;;5056727;28;20044;-79
2021/11/01 04:14:23;;;;;;;11.23;0.28;;;9.20;99.90;;;;;;5073986;28;20032;-78
2021/11/01 04:17:00;;;;;;;8.25;0.20;;;9.20;99.90;;;;;;5072656;28;20032;-78
2021/11/01 04:21:53;;;;;;;8.57;1.20;;;9.20;99.90;;;;;;5076298;28;20043;-79
2021/11/01 04:24:20;;;;;;;11.88;0.47;;;9.70;99.90;;;;;;5074123;28;20020;-78
2021/11/01 04:26:47;;;;;;;6.22;0.15;;;9.20;99.90;;;;;;5055619;28;20022;-79
2021/11/01 04:29:13;;;;;;;12.00;0.40;;;9.20;99.90;;;;;;5056358;28;20019;-79
2021/11/01 04:31:43;;;;;;;9.52;1.02;;;9.20;99.90;;;;;;5056799;28;20062;-79
2021/11/01 04:34:15;;;;;;;6.00;0.20;;;9.20;99.90;;;;;;5055634;28;20032;-78
2021/11/01 04:36:41;;;;;;;13.27;0.43;;;9.10;99.90;;;;;;5073488;28;20021;-79
2021/11/01 04:42:17;;;;;;;6.03;0.10;;;9.10;99.90;;;;;;5074164;28;20034;-79
2021/11/01 04:53:00;;;;;;;3.08;0.25;;;9.00;99.90;;;;;;5080099;28;20082;-78
2021/11/01 04:55:28;;;;;;;9.77;0.55;;;9.00;99.90;;;;;;5080526;28;20017;-78
2021/11/01 04:57:54;;;;;;;8.90;0.20;;;9.00;99.90;;;;;;5061778;28;20016;-78
2021/11/01 05:00:20;;;;;;;7.85;0.08;;;9.00;99.90;;;;;;5061698;28;20422;-78
2021/11/01 05:02:51;;;;;;;4.20;0.20;;;9.00;99.90;;;;;;5061633;28;20063;-78
2021/11/01 05:05:16;;;;;;;8.93;0.15;;;8.90;99.90;;;;;;5079876;28;20017;-78
2021/11/01 05:07:47;;;;;;;6.82;0.25;;;8.90;99.90;;;;;;5062634;28;20028;-78
2021/11/01 05:10:25;;;;;;;3.92;0.63;;;8.90;99.90;;;;;;5080280;28;20024;-78
2021/11/01 05:12:51;;;;;;;3.58;0.20;;;8.90;99.90;;;;;;5062029;28;20081;-78
2021/11/01 05:17:53;;;;;;;3.67;0.10;;;8.90;99.90;;;;;;5079980;28;20028;-78
2021/11/01 05:20:37;;;;;;;6.00;0.60;;;8.90;99.90;;;;;;5062152;28;20393;-78
2021/11/01 05:23:14;;;;;;;9.63;0.10;;;8.90;99.90;;;;;;5081575;28;20099;-79
2021/11/01 05:25:44;;;;;;;7.70;0.15;;;9.00;99.90;;;;;;5080935;28;20025;-78
2021/11/01 05:30:58;;;;;;;8.95;0.57;;;8.90;99.90;;;;;;5080412;28;20058;-78
2021/11/01 05:35:55;;;;;;;4.95;0.08;;;8.90;99.90;;;;;;5083207;28;20040;-79
2021/11/01 05:38:20;;;;;;;5.45;0.30;;;9.00;99.90;;;;;;5063817;28;20031;-79
2021/11/01 05:40:46;;;;;;;5.53;0.95;;;9.00;99.90;;;;;;5082233;28;20330;-79
2021/11/01 05:43:11;;;;;;;9.80;1.38;;;9.00;99.90;;;;;;5082955;28;20028;-80
2021/11/01 05:45:37;;;;;;;12.27;0.90;;;9.00;99.90;;;;;;5066954;28;20465;-78
2021/11/01 05:48:03;;;;;;;9.52;0.77;;;9.00;99.90;;;;;;5066259;28;20124;-78
2021/11/01 05:50:31;;;;;;;8.48;0.65;;;9.00;99.90;;;;;;5065317;28;20137;-79
2021/11/01 05:52:59;;;;;;;2.53;0.07;;;9.00;99.90;;;;;;5083473;28;20551;-78
2021/11/01 05:55:44;;;;;;;9.40;0.60;;;9.00;99.90;;;;;;5083481;28;20029;-78
2021/11/01 06:08:44;;;;;;;7.45;0.32;;;9.00;99.90;;;;;;5076246;28;20032;-77
2021/11/01 06:14:06;;;;;;;6.03;0.20;;;9.00;99.90;;;;;;5038756;28;20060;-75
2021/11/01 06:16:31;;;;;;;12.40;0.82;;;9.10;99.90;;;;;;5058364;28;20112;-75
2021/11/01 06:18:57;;;;;;;11.82;0.47;;;9.10;99.90;;;;;;5057705;28;20052;-75
2021/11/01 06:21:22;;;;;;;5.30;0.28;;;9.10;99.90;;;;;;5075969;28;20035;-75
2021/11/01 06:23:52;;;;;;;9.27;0.88;;;9.10;99.90;;;;;;5075849;28;20480;-75
2021/11/01 06:26:19;;;;;;;6.65;0.70;;;9.00;99.90;;;;;;5075491;28;20449;-72
2021/11/01 06:28:48;;;;;;;5.22;0.30;;;9.00;99.90;;;;;;5057595;28;20501;-72
2021/11/01 06:31:19;;;;;;;6.55;0.38;;;9.00;99.90;;;;;;5075603;28;20009;-72
2021/11/01 06:34:04;;;;;;;7.13;0.43;;;9.00;99.90;;;;;;5075482;28;20119;-72
2021/11/01 06:39:43;;;;;;;9.40;1.27;;;9.00;99.90;;;;;;5079630;28;20032;-73
2021/11/01 06:42:24;;;;;;;9.93;0.80;;;9.00;99.90;;;;;;5079859;28;20078;-73
2021/11/01 06:50:36;;;;;;;5.15;0.38;;;9.00;99.90;;;;;;5079515;28;20036;-73
2021/11/01 07:15:10;;;;;;;3.30;0.20;;;9.10;99.90;;;;;;5074830;28;20031;-73
2021/11/01 07:17:50;;;;;;;3.85;0.13;;;9.20;99.90;;;;;;5074339;28;20035;-75
2021/11/01 07:21:07;;;;;;;7.07;0.22;;;9.20;99.90;;;;;;5056584;28;20048;-76
2021/11/01 08:24:51;;;;;;;3.95;0.03;;;10.10;99.90;;;;;;5078269;28;20037;-76
2021/11/01 08:35:54;;;;;;;7.47;0.10;;;10.10;99.90;;;;;;5078617;28;20040;-76
2021/11/01 08:41:02;;;;;;;5.85;0.68;;;10.30;99.90;;;;;;5078258;28;20025;-76
2021/11/01 08:43:47;;;;;;;3.28;0.10;;;10.30;99.90;;;;;;5077691;28;20074;-77
2021/11/01 09:05:05;;;;;;;2.78;0.47;;;10.70;99.90;;;;;;5077742;28;20032;-76
2021/11/01 09:07:53;;;;;;;5.47;0.40;;;10.60;99.90;;;;;;5077313;28;20035;-76
2021/11/01 09:28:34;;;;;;;4.78;0.20;;;11.00;99.90;;;;;;5072862;28;20477;-75
2021/11/01 09:36:32;;;;;;;3.80;0.30;;;11.20;99.90;;;;;;5077092;28;19911;-75
2021/11/01 09:41:25;;;;;;;2.63;0.00;;;11.30;99.90;;;;;;5076923;28;20032;-75
2021/11/01 09:43:53;;;;;;;5.20;0.20;;;11.30;99.90;;;;;;5058646;28;20028;-75
2021/11/01 09:46:21;;;;;;;3.00;0.10;;;11.40;99.90;;;;;;5076948;28;20017;-75
2021/11/01 09:48:47;;;;;;;7.03;1.08;;;11.40;99.90;;;;;;5076489;28;20044;-75
2021/11/01 09:51:14;;;;;;;7.93;0.55;;;11.40;99.90;;;;;;5076527;28;20390;-75
2021/11/01 09:53:41;;;;;;;3.35;0.00;;;11.50;99.90;;;;;;5058406;28;20031;-75
2021/11/01 09:56:19;;;;;;;4.32;0.55;;;11.50;99.90;;;;;;5076624;28;20025;-75
2021/11/01 10:01:31;;;;;;;3.00;0.20;;;11.50;99.90;;;;;;5076546;28;20119;-75
2021/11/01 10:03:56;;;;;;;4.32;0.28;;;11.60;99.90;;;;;;5057974;28;20476;-75
2021/11/01 10:06:23;;;;;;;5.97;0.65;;;11.70;99.90;;;;;;5057931;28;20021;-75
2021/11/01 10:08:56;;;;;;;3.00;0.00;;;11.70;99.90;;;;;;5075913;28;20040;-75
2021/11/01 10:11:25;;;;;;;0.30;0.00;;;11.80;99.90;;;;;;5076143;28;20562;-76
2021/11/01 10:13:58;;;;;;;2.40;0.00;;;11.80;99.90;;;;;;5058167;28;20428;-75
2021/11/01 10:19:26;;;;;;;0.77;0.20;;;11.90;99.90;;;;;;5076061;28;20035;-76
2021/11/01 10:21:53;;;;;;;3.90;0.00;;;12.00;99.90;;;;;;5075796;28;20021;-75
2021/11/01 10:24:27;;;;;;;0.52;0.05;;;12.00;99.90;;;;;;5075683;28;20035;-75
2021/11/01 10:26:54;;;;;;;1.27;0.10;;;12.10;99.90;;;;;;5075634;28;20029;-75
2021/11/01 10:29:23;;;;;;;3.00;0.15;;;12.20;99.90;;;;;;5057651;28;20104;-75
2021/11/01 10:31:48;;;;;;;;;;;12.20;99.90;;;;;;5075974;28;20029;-75
2021/11/01 10:34:15;;;;;;;1.95;0.00;;;12.20;99.90;;;;;;5075499;28;19923;-76
2021/11/01 10:36:43;;;;;;;3.63;0.10;;;12.20;99.90;;;;;;5057794;28;20173;-75
2021/11/01 10:39:13;;;;;;;6.63;1.73;;;12.10;99.90;;;;;;5075360;28;20033;-75
2021/11/01 10:41:45;;;;;;;4.60;0.10;;;12.20;99.90;;;;;;5075586;28;20402;-76
2021/11/01 10:44:29;;;;;;;4.32;0.00;;;12.30;99.90;;;;;;5075237;28;20032;-76
2021/11/01 11:12:33;;;;;;;1.23;0.00;;;12.60;99.90;;;;;;5075370;28;20040;-75
2021/11/01 11:15:09;;;;;;;1.85;0.00;;;12.60;99.90;;;;;;5074873;28;20031;-76
2021/11/01 11:26:09;;;;;;;4.10;0.00;;;12.50;99.90;;;;;;5074533;28;20492;-76
2021/11/01 11:48:45;;;;;;;3.63;0.40;;;13.20;99.90;;;;;;5074509;28;20036;-74
2021/11/01 11:51:11;;;;;;;3.63;0.28;;;13.30;99.90;;;;;;5073910;28;20385;-75
2021/11/01 11:53:57;;;;;;;2.55;0.10;;;13.30;99.90;;;;;;5073902;28;20031;-78
2021/11/01 11:56:28;;;;;;;4.50;0.00;;;13.30;99.90;;;;;;5073369;28;20036;-74
2021/11/01 11:58:58;;;;;;;1.80;0.00;;;13.40;99.90;;;;;;5055621;28;20023;-75
2021/11/01 12:01:33;;;;;;;3.28;0.43;;;13.40;99.90;;;;;;5073800;28;20437;-75
2021/11/01 12:04:19;;;;;;;2.33;0.47;;;13.50;99.90;;;;;;5073580;28;20115;-77
2021/11/01 12:07:00;;;;;;;3.38;0.20;;;13.50;99.90;;;;;;5055617;28;20032;-75
2021/11/01 12:17:32;;;;;;;3.15;0.00;;;13.80;99.90;;;;;;5073517;28;20024;-74
2021/11/01 12:19:59;;;;;;;4.72;0.00;;;13.90;99.90;;;;;;5073693;28;20032;-74
2021/11/01 12:22:33;;;;;;;1.75;0.00;;;13.80;99.90;;;;;;5073608;28;20028;-73
2021/11/01 12:25:03;;;;;;;7.68;0.10;;;13.80;99.90;;;;;;5073506;28;20485;-73
2021/11/01 12:27:31;;;;;;;1.80;0.08;;;13.80;99.90;;;;;;5073260;28;20051;-77
2021/11/01 12:29:57;;;;;;;3.45;0.00;;;13.80;99.90;;;;;;5073419;28;20021;-77
2021/11/01 12:32:23;;;;;;;2.45;0.00;;;13.80;99.90;;;;;;5073255;28;20521;-78
2021/11/01 12:35:04;;;;;;;2.90;0.00;;;13.90;99.90;;;;;;5073386;28;20096;-77
2021/11/01 12:37:38;;;;;;;4.10;0.10;;;13.90;99.90;;;;;;5073295;28;20426;-77
2021/11/01 12:40:51;;;;;;;1.33;0.00;;;13.90;99.90;;;;;;5055370;28;20050;-77
2021/11/01 12:48:22;;;;;;;5.38;0.65;;;14.00;99.90;;;;;;5073017;28;20104;-78
2021/11/01 12:59:14;;;;;;;2.75;0.00;;;14.40;99.90;;;;;;5078495;28;20031;-74
2021/11/01 13:01:47;;;;;;;6.85;1.08;;;14.50;99.90;;;;;;5077863;28;20028;-74
2021/11/01 13:04:25;;;;;;;1.90;0.00;;;14.60;99.90;;;;;;5059584;28;20117;-74
2021/11/01 13:07:02;;;;;;;3.60;0.20;;;14.60;99.90;;;;;;5077501;28;20017;-74
2021/11/01 13:09:34;;;;;;;3.90;0.00;;;14.80;99.90;;;;;;5078721;28;20031;-74
2021/11/01 13:12:22;;;;;;;1.83;0.52;;;14.70;99.90;;;;;;5077891;28;20021;-74
2021/11/01 13:20:20;;;;;;;2.60;0.52;;;14.80;99.90;;;;;;5081932;28;20036;-74
2021/11/01 13:22:47;;;;;;;2.78;0.00;;;14.90;99.90;;;;;;5081594;28;20500;-74
2021/11/01 13:25:21;;;;;;;4.03;0.00;;;15.10;99.90;;;;;;5081581;28;20043;-74
2021/11/01 13:38:51;;;;;;;4.00;0.10;;;14.00;99.90;;;;;;5076552;28;20029;-73
2021/11/01 13:41:22;;;;;;;;;;;13.90;99.90;;;;;;5076850;28;20031;-74
2021/11/01 13:43:48;;;;;;;1.27;0.10;;;13.80;99.90;;;;;;5076335;28;19914;-75
2021/11/01 13:46:15;;;;;;;2.65;0.03;;;13.70;99.90;;;;;;5076297;28;20017;-76
2021/11/01 13:48:42;;;;;;;8.02;0.00;;;13.60;99.90;;;;;;5058202;28;20116;-76
2021/11/01 13:51:13;;;;;;;0.40;0.00;;;13.60;99.90;;;;;;5079474;28;20025;-75
2021/11/01 13:53:59;;;;;;;6.50;0.40;;;13.50;99.90;;;;;;5076130;28;20477;-75
2021/11/01 13:56:28;;;;;;;3.53;0.10;;;13.60;99.90;;;;;;5076096;28;20016;-76
2021/11/01 13:59:00;;;;;;;0.55;0.00;;;13.70;99.90;;;;;;5076013;28;20029;-75
2021/11/01 14:12:45;;;;;;;4.88;0.00;;;13.20;99.90;;;;;;5080844;28;20027;-75
2021/11/01 14:20:36;;;;;;;6.05;0.20;;;13.70;99.90;;;;;;5074858;28;20464;-74
2021/11/01 14:34:11;;;;;;;4.28;0.15;;;13.10;99.90;;;;;;5075404;28;20036;-74
2021/11/01 15:04:14;;;;;;;1.40;0.10;;;12.30;99.90;;;;;;5075198;28;20061;-77
2021/11/01 15:09:20;;;;;;;2.65;0.03;;;12.30;99.90;;;;;;5075548;28;20035;-76
2021/11/01 15:15:03;;;;;;;7.80;0.00;;;12.10;99.90;;;;;;5075322;28;20461;-76
2021/11/01 15:25:38;;;;;;;1.02;0.38;;;11.90;99.90;;;;;;5075551;28;20035;-75
2021/11/01 15:28:08;;;;;;;5.22;0.13;;;11.90;99.90;;;;;;5075094;28;20025;-75
2021/11/01 15:41:36;;;;;;;0.15;0.00;;;11.40;99.90;;;;;;5079430;28;20035;-75
2021/11/01 16:19:15;;;;;;;0.47;0.00;;;9.80;99.90;;;;;;5078733;28;20489;-77
2021/11/01 16:21:41;;;;;;;0.52;0.00;;;9.80;99.90;;;;;;5060095;28;20069;-78
2021/11/01 16:24:11;;;;;;;0.85;0.00;;;9.70;99.90;;;;;;5079220;28;20036;-76
2021/11/01 16:26:37;;;;;;;2.10;0.20;;;9.70;99.90;;;;;;5060765;28;20112;-76
2021/11/01 16:29:08;;;;;;;1.90;0.00;;;9.70;99.90;;;;;;5078380;28;20044;-76
2021/11/01 16:31:56;;;;;;;2.08;0.00;;;9.70;99.90;;;;;;5078656;28;20382;-76
2021/11/01 16:34:32;;;;;;;0.35;0.00;;;9.60;99.90;;;;;;5060430;28;20037;-77
2021/11/01 16:39:35;;;;;;;1.98;0.43;;;9.70;99.90;;;;;;5078979;28;20099;-76
2021/11/01 16:42:01;;;;;;;0.20;0.08;;;9.70;99.90;;;;;;5060273;28;20046;-77
2021/11/01 16:44:28;;;;;;;0.93;0.00;;;9.70;99.90;;;;;;5077886;28;20024;-76
2021/11/01 16:46:55;;;;;;;0.25;0.00;;;9.70;99.90;;;;;;5060275;28;20020;-76
2021/11/01 16:49:22;;;;;;;0.75;0.00;;;9.70;99.90;;;;;;5078506;28;20016;-76
2021/11/01 16:51:49;;;;;;;0.50;0.00;;;9.80;99.90;;;;;;5078120;28;20020;-77
2021/11/01 16:54:22;;;;;;;0.10;0.00;;;9.70;99.90;;;;;;5077802;28;20063;-77
2021/11/01 16:56:57;;;;;;;0.15;0.00;;;9.70;99.90;;;;;;5078251;28;20498;-77
2021/11/01 16:59:37;;;;;;;0.00;0.00;;;9.60;99.90;;;;;;5059790;28;20029;-76
2021/11/01 17:04:44;;;;;;;0.10;0.00;;;9.50;99.90;;;;;;5077275;28;20033;-77
2021/11/01 17:07:23;;;;;;;1.65;0.00;;;9.50;99.90;;;;;;5074641;28;20020;-77
2021/11/01 17:27:07;;;;;;;0.68;0.00;;;9.20;99.90;;;;;;5041602;28;20444;-77
2021/11/01 18:43:36;;;;;;;0.57;0.03;;;8.40;99.90;;;;;;5080731;28;20054;-78
2021/11/01 18:51:39;;;;;;;0.60;0.10;;;8.40;99.90;;;;;;5078720;28;20094;-75
2021/11/01 18:54:22;;;;;;;0.98;0.55;;;8.40;99.90;;;;;;5074914;28;20029;-74
2021/11/01 18:56:49;;;;;;;1.20;0.30;;;8.30;99.90;;;;;;5058482;28;20024;-74
2021/11/01 18:59:16;;;;;;;4.03;0.35;;;8.30;99.90;;;;;;5079488;28;20500;-73
2021/11/01 19:01:48;;;;;;;1.58;0.65;;;8.30;99.90;;;;;;5076983;28;20049;-75
2021/11/01 19:04:19;;;;;;;1.30;0.30;;;8.30;99.90;;;;;;5074793;28;20028;-75
2021/11/01 21:27:02;;;;;;;1.90;0.55;;;7.20;99.90;;;;;;5072828;28;20032;-75
2021/11/01 21:29:29;;;;;;;4.15;0.47;;;7.20;99.90;;;;;;5074583;28;20035;-75
2021/11/01 21:31:55;;;;;;;5.00;0.52;;;7.20;99.90;;;;;;5076237;28;20021;-75
2021/11/01 21:37:13;;;;;;;2.00;0.55;;;7.30;99.90;;;;;;5052891;28;20090;-76
2021/11/01 21:39:39;;;;;;;2.55;0.40;;;7.30;99.90;;;;;;5060306;28;20024;-75
2021/11/01 21:42:04;;;;;;;3.22;0.82;;;7.30;99.90;;;;;;5075115;28;20047;-74
2021/11/01 21:44:34;;;;;;;1.92;0.22;;;7.30;99.90;;;;;;5076693;28;20108;-77
2021/11/01 21:46:59;;;;;;;1.55;0.50;;;7.00;99.90;;;;;;5059865;28;20089;-74
2021/11/01 21:49:25;;;;;;;2.85;0.25;;;7.30;99.90;;;;;;5060063;28;20477;-74
2021/11/01 21:51:52;;;;;;;2.08;0.50;;;7.40;99.90;;;;;;5062108;28;20029;-74
2021/11/01 21:54:27;;;;;;;6.85;0.45;;;7.40;99.90;;;;;;5081392;28;20017;-76
2021/11/01 21:57:08;;;;;;;2.05;0.40;;;7.30;99.90;;;;;;5080165;28;20037;-75
2021/11/01 22:21:46;;;;;;;3.67;0.60;;;6.90;99.90;;;;;;5076055;28;20043;-74
2021/11/01 22:24:27;;;;;;;1.45;0.98;;;6.90;99.90;;;;;;5061341;28;20043;-75
2021/11/01 22:38:16;;;;;;;1.88;0.68;;;6.80;99.90;;;;;;5080895;28;20082;-74
2021/11/01 22:40:42;;;;;;;5.55;1.35;;;6.60;99.90;;;;;;5078471;28;20048;-75
2021/11/01 22:43:17;;;;;;;3.15;0.50;;;6.60;99.90;;;;;;5058904;28;20032;-74
2021/11/01 22:56:50;;;;;;;3.10;1.10;;;6.40;99.90;;;;;;5059774;28;20043;-76
2021/11/01 22:59:17;;;;;;;4.68;1.52;;;6.40;99.90;;;;;;5060045;28;20385;-73
2021/11/01 23:01:45;;;;;;;2.33;1.20;;;6.40;99.90;;;;;;5077479;28;20066;-76
2021/11/01 23:33:48;;;;;;;3.13;1.50;;;6.00;99.90;;;;;;5077578;28;20459;-79
2021/11/01 23:36:13;;;;;;;2.97;1.13;;;6.00;99.90;;;;;;5058714;28;20036;-79
2021/11/01 23:38:39;;;;;;;5.53;1.80;;;6.00;99.90;;;;;;5077350;28;20021;-79
2021/11/01 23:41:04;;;;;;;3.55;1.55;;;6.00;99.90;;;;;;5059089;28;20385;-79
2021/11/01 23:43:31;;;;;;;3.72;1.40;;;6.00;99.90;;;;;;5076695;28;20592;-79
2021/11/01 23:45:57;;;;;;;5.15;1.70;;;6.00;99.90;;;;;;5076652;28;20024;-80
2021/11/01 23:48:22;;;;;;;4.80;1.48;;;6.00;99.90;;;;;;5077177;28;20028;-80
2021/11/01 23:50:49;;;;;;;7.80;1.60;;;6.00;99.90;;;;;;5076593;28;20055;-79
2021/11/01 23:53:19;;;;;;;4.38;1.45;;;6.00;99.90;;;;;;5075473;28;20107;-79
2021/11/01 23:55:46;;;;;;;2.28;1.50;;;6.00;99.90;;;;;;5062344;28;20036;-79
2021/11/01 23:58:12;;;;;;;2.65;1.33;;;6.00;99.90;;;;;;5081825;28;20033;-79
